Time;durP1;ratioP1;P1;durP2;ratioP2;P2;SDS_P1;SDS_P2;PMS_P1;PMS_P2;Temp;Humidity;BMP_temperature;BMP_pressure;BME280_temperature;BME280_humidity;BME280_pressure;Samples;Min_cycle;Max_cycle;Signal;HPM_P1;HPM_P2
2022/04/05 00:01:08;;;;;;;9.93;4.78;;;;;;;;;;5085471;28;20134;-78
2022/04/05 00:03:35;;;;;;;10.27;5.38;;;;;;;;;;5082324;28;20051;-78
2022/04/05 00:06:01;;;;;;;10.82;4.68;;;;;;;;;;5084398;28;20080;-78
2022/04/05 00:08:30;;;;;;;8.60;4.78;;;;;;;;;;5085323;28;20068;-77
2022/04/05 00:10:57;;;;;;;9.35;4.80;;;;;;;;;;5084969;28;20132;-78
2022/04/05 00:13:23;;;;;;;9.02;4.60;;;;;;;;;;5084370;28;20079;-78
2022/04/05 00:15:49;;;;;;;9.65;5.15;;;;;;;;;;5084476;28;20067;-78
2022/04/05 00:18:16;;;;;;;9.27;4.78;;;;;;;;;;5083937;28;20104;-78
2022/04/05 00:20:43;;;;;;;8.18;4.53;;;;;;;;;;5084585;28;20128;-78
2022/04/05 00:23:09;;;;;;;8.18;4.72;;;;;;;;;;5082080;28;20140;-78
2022/04/05 00:25:37;;;;;;;7.88;4.85;;;;;;;;;;5082987;28;20524;-78
2022/04/05 00:28:04;;;;;;;8.18;4.88;;;;;;;;;;5084296;28;20095;-77
2022/04/05 00:30:31;;;;;;;9.68;5.50;;;;;;;;;;5084193;28;20067;-78
2022/04/05 00:32:58;;;;;;;9.15;4.28;;;;;;;;;;5083318;28;20076;-77
2022/04/05 00:35:24;;;;;;;8.52;4.38;;;;;;;;;;5082779;28;20083;-78
2022/04/05 00:37:51;;;;;;;8.43;3.97;;;;;;;;;;5099773;28;20086;-78
2022/04/05 00:40:17;;;;;;;6.50;4.35;;;;;;;;;;5104040;28;20439;-78
2022/04/05 00:42:45;;;;;;;8.98;4.85;;;;;;;;;;5102940;28;20111;-78
2022/04/05 00:45:15;;;;;;;7.88;4.22;;;;;;;;;;5100252;28;20068;-78
2022/04/05 00:47:44;;;;;;;9.25;4.68;;;;;;;;;;5099389;28;20128;-78
2022/04/05 00:50:11;;;;;;;7.97;4.28;;;;;;;;;;5102399;28;20044;-77
2022/04/05 00:52:37;;;;;;;6.03;3.65;;;;;;;;;;5102389;28;20072;-77
2022/04/05 00:55:04;;;;;;;8.43;4.47;;;;;;;;;;5102399;28;20047;-78
2022/04/05 00:57:32;;;;;;;9.05;4.72;;;;;;;;;;5100670;28;20072;-78
2022/04/05 01:00:04;;;;;;;7.80;4.28;;;;;;;;;;5102085;28;20064;-78
2022/04/05 01:02:36;;;;;;;6.43;3.75;;;;;;;;;;5106849;22;20083;-82
2022/04/05 01:05:04;;;;;;;6.97;3.72;;;;;;;;;;5080523;28;20671;-82
2022/04/05 01:07:31;;;;;;;7.22;3.78;;;;;;;;;;5079520;28;20032;-82
2022/04/05 01:09:59;;;;;;;9.38;5.65;;;;;;;;;;5084559;28;20036;-81
2022/04/05 01:12:25;;;;;;;9.52;4.47;;;;;;;;;;5086421;28;20079;-83
2022/04/05 01:14:53;;;;;;;7.40;4.20;;;;;;;;;;5085969;28;20127;-82
2022/04/05 01:17:21;;;;;;;8.45;5.53;;;;;;;;;;5085576;28;20033;-83
2022/04/05 01:19:48;;;;;;;7.30;4.10;;;;;;;;;;5085594;28;20047;-81
2022/04/05 01:22:15;;;;;;;8.48;4.25;;;;;;;;;;5086631;28;20131;-82
2022/04/05 01:24:44;;;;;;;7.30;3.75;;;;;;;;;;5084729;28;20041;-83
2022/04/05 01:27:16;;;;;;;10.15;4.47;;;;;;;;;;5068728;28;20468;-82
2022/04/05 01:29:43;;;;;;;7.40;4.35;;;;;;;;;;5077479;28;20044;-81
2022/04/05 01:32:11;;;;;;;8.30;4.78;;;;;;;;;;5085732;28;20143;-82
2022/04/05 01:34:39;;;;;;;8.68;4.45;;;;;;;;;;5087291;28;20553;-82
2022/04/05 01:37:08;;;;;;;9.77;5.47;;;;;;;;;;5083847;28;20078;-82
2022/04/05 01:39:36;;;;;;;8.23;4.20;;;;;;;;;;5064057;28;20074;-83
2022/04/05 01:42:05;;;;;;;8.90;4.60;;;;;;;;;;5074032;28;20123;-81
2022/04/05 01:44:33;;;;;;;8.70;4.80;;;;;;;;;;5072441;28;20036;-82
2022/04/05 01:47:04;;;;;;;9.05;5.07;;;;;;;;;;5072856;28;20055;-81
2022/04/05 01:49:30;;;;;;;7.15;4.70;;;;;;;;;;5072779;28;20066;-82
2022/04/05 01:51:57;;;;;;;7.88;5.07;;;;;;;;;;5070828;28;20144;-82
2022/04/05 01:54:24;;;;;;;8.88;5.15;;;;;;;;;;5066991;28;20574;-82
2022/04/05 01:56:52;;;;;;;8.70;4.38;;;;;;;;;;5069787;28;20055;-82
2022/04/05 01:59:22;;;;;;;10.18;5.05;;;;;;;;;;5066277;28;20127;-83
2022/04/05 02:01:49;;;;;;;9.18;5.43;;;;;;;;;;5070140;28;20071;-82
2022/04/05 02:04:16;;;;;;;8.68;4.60;;;;;;;;;;5064912;28;20079;-82
2022/04/05 02:06:44;;;;;;;8.65;5.00;;;;;;;;;;5067216;28;20064;-82
2022/04/05 02:09:13;;;;;;;10.70;5.70;;;;;;;;;;5065306;28;20036;-82
2022/04/05 02:11:41;;;;;;;9.55;5.45;;;;;;;;;;5071179;28;20095;-81
2022/04/05 02:14:08;;;;;;;9.43;5.13;;;;;;;;;;5072496;28;20067;-83
2022/04/05 02:16:37;;;;;;;9.30;5.85;;;;;;;;;;5068222;28;20048;-82
2022/04/05 02:19:05;;;;;;;11.55;5.55;;;;;;;;;;5069236;28;20076;-83
2022/04/05 02:21:32;;;;;;;9.98;5.03;;;;;;;;;;5066833;28;20056;-82
2022/04/05 02:23:58;;;;;;;8.80;4.45;;;;;;;;;;5064595;28;20127;-83
2022/04/05 02:26:25;;;;;;;9.98;5.20;;;;;;;;;;5068293;28;20370;-81
2022/04/05 02:28:52;;;;;;;8.90;5.10;;;;;;;;;;5065214;28;20096;-81
2022/04/05 02:31:19;;;;;;;7.88;5.22;;;;;;;;;;5065895;28;20063;-81
2022/04/05 02:33:47;;;;;;;9.85;5.68;;;;;;;;;;5065622;28;20361;-80
2022/04/05 02:36:14;;;;;;;9.23;5.30;;;;;;;;;;5067638;28;20766;-81
2022/04/05 02:38:41;;;;;;;10.25;5.20;;;;;;;;;;5065870;28;20116;-83
2022/04/05 02:41:08;;;;;;;8.43;6.10;;;;;;;;;;5066285;28;20041;-82
2022/04/05 02:43:35;;;;;;;7.30;5.18;;;;;;;;;;5062558;28;20128;-82
2022/04/05 02:46:03;;;;;;;8.75;4.65;;;;;;;;;;5064547;28;20123;-82
2022/04/05 02:48:30;;;;;;;9.80;5.07;;;;;;;;;;5065885;28;20049;-81
2022/04/05 02:50:58;;;;;;;8.10;4.78;;;;;;;;;;5069606;28;20538;-82
2022/04/05 02:53:25;;;;;;;8.50;4.93;;;;;;;;;;5066058;28;20132;-81
2022/04/05 02:55:52;;;;;;;9.63;4.57;;;;;;;;;;5070147;28;20068;-83
2022/04/05 02:58:20;;;;;;;8.80;5.30;;;;;;;;;;5066279;28;20187;-81
2022/04/05 03:00:46;;;;;;;7.25;4.30;;;;;;;;;;5065280;28;20040;-83
2022/04/05 03:03:12;;;;;;;6.57;4.10;;;;;;;;;;5066860;28;20082;-82
2022/04/05 03:05:39;;;;;;;10.50;5.35;;;;;;;;;;5063424;28;20100;-82
2022/04/05 03:08:07;;;;;;;9.10;5.50;;;;;;;;;;5066738;28;20131;-83
2022/04/05 03:10:34;;;;;;;8.63;5.22;;;;;;;;;;5067584;28;20054;-83
2022/04/05 03:13:04;;;;;;;9.77;5.10;;;;;;;;;;5062898;28;20040;-81
2022/04/05 03:15:30;;;;;;;8.20;4.63;;;;;;;;;;5065232;28;20079;-83
2022/04/05 03:17:58;;;;;;;7.72;4.95;;;;;;;;;;5067137;28;20052;-82
2022/04/05 03:20:25;;;;;;;8.57;5.13;;;;;;;;;;5068260;28;20528;-82
2022/04/05 03:22:52;;;;;;;8.60;5.03;;;;;;;;;;5071072;28;20128;-82
2022/04/05 03:25:21;;;;;;;10.20;5.35;;;;;;;;;;5066098;28;20098;-82
2022/04/05 03:27:48;;;;;;;8.10;4.63;;;;;;;;;;5068306;28;20064;-83
2022/04/05 03:30:19;;;;;;;10.38;4.72;;;;;;;;;;5060989;28;20052;-83
2022/04/05 03:32:45;;;;;;;11.65;5.45;;;;;;;;;;5070338;28;20047;-82
2022/04/05 03:35:12;;;;;;;8.85;5.03;;;;;;;;;;5067302;28;20084;-83
2022/04/05 03:37:40;;;;;;;9.52;4.88;;;;;;;;;;5059456;28;20724;-82
2022/04/05 03:40:10;;;;;;;9.98;5.32;;;;;;;;;;5068482;28;20131;-82
2022/04/05 03:42:38;;;;;;;7.43;5.40;;;;;;;;;;5070455;28;20037;-82
2022/04/05 03:45:06;;;;;;;10.82;5.68;;;;;;;;;;5067899;28;20128;-82
2022/04/05 03:47:33;;;;;;;11.57;5.40;;;;;;;;;;5066395;28;20075;-82
2022/04/05 03:49:59;;;;;;;8.57;4.35;;;;;;;;;;5067561;28;20036;-82
2022/04/05 03:52:26;;;;;;;8.57;4.80;;;;;;;;;;5070571;28;20388;-83
2022/04/05 03:54:53;;;;;;;8.75;4.72;;;;;;;;;;5063684;28;20094;-82
2022/04/05 03:57:20;;;;;;;8.13;4.30;;;;;;;;;;5067659;28;20071;-83
2022/04/05 03:59:48;;;;;;;7.78;4.47;;;;;;;;;;5063630;28;20188;-82
2022/04/05 04:02:15;;;;;;;7.95;4.30;;;;;;;;;;5063131;28;20570;-83
2022/04/05 04:04:43;;;;;;;8.57;4.70;;;;;;;;;;5066675;28;20132;-83
2022/04/05 04:07:10;;;;;;;7.80;5.32;;;;;;;;;;5064886;28;20531;-83
2022/04/05 04:09:37;;;;;;;7.15;4.50;;;;;;;;;;5066636;28;20468;-82
2022/04/05 04:12:05;;;;;;;8.98;4.55;;;;;;;;;;5067964;28;20040;-83
2022/04/05 04:14:33;;;;;;;8.73;4.82;;;;;;;;;;5069310;28;20049;-82
2022/04/05 04:17:03;;;;;;;9.02;4.05;;;;;;;;;;5066701;28;20119;-83
2022/04/05 04:19:30;;;;;;;10.65;5.82;;;;;;;;;;5067095;28;20178;-82
2022/04/05 04:21:56;;;;;;;6.97;3.90;;;;;;;;;;5070613;28;20123;-82
2022/04/05 04:24:23;;;;;;;9.85;4.03;;;;;;;;;;5068883;28;20131;-86
2022/04/05 04:26:50;;;;;;;8.43;4.90;;;;;;;;;;5072224;28;20133;-82
2022/04/05 04:29:17;;;;;;;8.05;4.55;;;;;;;;;;5070517;28;20799;-82
2022/04/05 04:31:43;;;;;;;6.60;3.95;;;;;;;;;;5070786;28;20075;-83
2022/04/05 04:34:13;;;;;;;7.00;3.55;;;;;;;;;;5068371;28;20119;-82
2022/04/05 04:36:40;;;;;;;10.93;4.82;;;;;;;;;;5070041;28;20036;-83
2022/04/05 04:39:07;;;;;;;8.85;5.15;;;;;;;;;;5067952;28;20057;-83
2022/04/05 04:41:34;;;;;;;9.07;4.80;;;;;;;;;;5051838;28;20308;-84
2022/04/05 04:44:01;;;;;;;9.15;5.00;;;;;;;;;;5073635;28;20120;-82
2022/04/05 04:46:27;;;;;;;9.35;5.40;;;;;;;;;;5074518;28;20068;-82
2022/04/05 04:48:54;;;;;;;10.25;5.93;;;;;;;;;;5072198;28;20127;-83
2022/04/05 04:51:26;;;;;;;9.38;5.22;;;;;;;;;;5066874;28;20135;-84
2022/04/05 04:53:53;;;;;;;9.18;5.32;;;;;;;;;;5055301;28;20036;-84
2022/04/05 04:56:20;;;;;;;10.07;4.88;;;;;;;;;;5073420;28;20072;-83
2022/04/05 04:58:47;;;;;;;9.27;4.82;;;;;;;;;;5069498;28;20039;-84
2022/04/05 05:01:13;;;;;;;9.75;5.35;;;;;;;;;;5070958;28;20072;-83
2022/04/05 05:03:41;;;;;;;9.77;4.97;;;;;;;;;;5083863;28;20048;-84
2022/04/05 05:06:08;;;;;;;10.32;5.28;;;;;;;;;;5073718;28;20737;-83
2022/04/05 05:08:36;;;;;;;9.27;5.32;;;;;;;;;;5073049;28;20063;-83
2022/04/05 05:11:03;;;;;;;10.18;5.22;;;;;;;;;;5071501;28;20095;-85
2022/04/05 05:13:35;;;;;;;9.65;5.70;;;;;;;;;;5073005;28;20046;-82
2022/04/05 05:16:02;;;;;;;8.43;4.60;;;;;;;;;;5080517;28;20068;-84
2022/04/05 05:18:29;;;;;;;8.60;5.55;;;;;;;;;;5076102;28;20049;-86
2022/04/05 05:20:57;;;;;;;9.95;5.00;;;;;;;;;;5078755;28;20325;-84
2022/04/05 05:23:24;;;;;;;8.98;5.85;;;;;;;;;;5072741;28;20076;-88
2022/04/05 05:25:55;;;;;;;9.43;4.65;;;;;;;;;;5073227;28;20032;-84
2022/04/05 05:28:22;;;;;;;8.00;4.55;;;;;;;;;;5056403;28;20072;-84
2022/04/05 05:30:48;;;;;;;8.25;4.35;;;;;;;;;;5068770;28;20071;-83
2022/04/05 05:33:15;;;;;;;8.82;4.55;;;;;;;;;;5069008;28;20037;-83
2022/04/05 05:35:42;;;;;;;13.48;4.97;;;;;;;;;;5086645;28;20040;-85
2022/04/05 05:38:08;;;;;;;7.78;4.72;;;;;;;;;;5093626;28;20080;-83
2022/04/05 05:40:35;;;;;;;9.77;4.60;;;;;;;;;;5097459;28;20056;-82
2022/04/05 05:43:04;;;;;;;9.93;5.18;;;;;;;;;;5063285;28;20092;-83
2022/04/05 05:45:33;;;;;;;13.30;6.35;;;;;;;;;;5070436;28;20770;-83
2022/04/05 05:48:00;;;;;;;8.05;4.22;;;;;;;;;;5075959;28;20185;-83
2022/04/05 05:50:27;;;;;;;7.38;4.15;;;;;;;;;;5075848;28;20119;-82
2022/04/05 05:52:54;;;;;;;6.93;3.35;;;;;;;;;;5075294;28;20071;-82
2022/04/05 05:55:24;;;;;;;6.63;3.22;;;;;;;;;;5074192;28;20067;-83
2022/04/05 05:57:51;;;;;;;6.78;4.63;;;;;;;;;;5072202;28;20532;-81
2022/04/05 06:00:22;;;;;;;8.13;3.80;;;;;;;;;;5076259;28;20442;-83
2022/04/05 06:02:52;;;;;;;6.05;3.00;;;;;;;;;;5075180;28;20421;-83
2022/04/05 06:05:19;;;;;;;8.50;4.10;;;;;;;;;;5073156;28;20475;-82
2022/04/05 06:07:46;;;;;;;8.45;3.63;;;;;;;;;;5075520;28;20143;-82
2022/04/05 06:10:14;;;;;;;7.85;3.45;;;;;;;;;;5066898;28;20051;-82
2022/04/05 06:12:42;;;;;;;6.03;3.30;;;;;;;;;;5073322;28;20063;-83
2022/04/05 06:15:11;;;;;;;7.50;3.38;;;;;;;;;;5072333;28;20068;-82
2022/04/05 06:17:41;;;;;;;5.75;3.03;;;;;;;;;;5073274;28;20071;-82
2022/04/05 06:20:10;;;;;;;7.63;2.90;;;;;;;;;;5055150;28;20045;-83
2022/04/05 06:22:44;;;;;;;5.72;2.95;;;;;;;;;;5072797;28;20080;-82
2022/04/05 06:25:11;;;;;;;6.45;3.20;;;;;;;;;;5075258;28;20484;-83
2022/04/05 06:27:38;;;;;;;5.50;3.15;;;;;;;;;;5075561;28;20083;-82
2022/04/05 06:30:08;;;;;;;8.68;3.28;;;;;;;;;;5074052;28;20071;-82
2022/04/05 06:32:36;;;;;;;7.82;3.22;;;;;;;;;;5074863;28;20116;-82
2022/04/05 06:35:07;;;;;;;9.98;4.15;;;;;;;;;;5075742;28;20068;-83
2022/04/05 06:37:37;;;;;;;6.30;3.92;;;;;;;;;;5074173;28;20075;-83
2022/04/05 06:40:05;;;;;;;5.95;3.50;;;;;;;;;;5075643;28;20468;-83
2022/04/05 06:42:31;;;;;;;6.88;3.38;;;;;;;;;;5073511;28;20063;-82
2022/04/05 06:44:58;;;;;;;6.75;4.28;;;;;;;;;;5081030;28;20067;-83
2022/04/05 06:47:25;;;;;;;7.32;3.45;;;;;;;;;;5080044;28;20105;-82
2022/04/05 06:49:51;;;;;;;6.28;3.42;;;;;;;;;;5075960;28;20770;-82
2022/04/05 06:52:20;;;;;;;6.82;3.65;;;;;;;;;;5075158;28;20709;-85
2022/04/05 06:54:46;;;;;;;6.35;2.92;;;;;;;;;;5070938;28;20043;-86
2022/04/05 06:57:13;;;;;;;6.72;3.78;;;;;;;;;;5071952;28;20123;-83
2022/04/05 06:59:39;;;;;;;7.05;3.85;;;;;;;;;;5070340;28;20655;-83
2022/04/05 07:02:06;;;;;;;5.47;3.42;;;;;;;;;;5072731;28;20075;-84
2022/04/05 07:04:32;;;;;;;10.63;3.45;;;;;;;;;;5072582;28;20045;-85
2022/04/05 07:06:59;;;;;;;5.57;3.30;;;;;;;;;;5071468;28;20127;-83
2022/04/05 07:09:27;;;;;;;7.65;3.50;;;;;;;;;;5072996;28;20068;-84
2022/04/05 07:11:53;;;;;;;6.30;3.25;;;;;;;;;;5072348;28;20487;-83
2022/04/05 07:14:20;;;;;;;9.80;4.78;;;;;;;;;;5077085;28;20143;-85
2022/04/05 07:16:47;;;;;;;6.70;3.88;;;;;;;;;;5073119;28;20058;-86
2022/04/05 07:19:13;;;;;;;7.38;3.58;;;;;;;;;;5076110;28;20127;-86
2022/04/05 07:21:40;;;;;;;6.95;3.70;;;;;;;;;;5071582;28;20095;-86
2022/04/05 07:24:07;;;;;;;5.80;3.38;;;;;;;;;;5071816;28;20489;-85
2022/04/05 07:26:35;;;;;;;9.23;3.92;;;;;;;;;;5069704;28;20032;-87
2022/04/05 07:29:01;;;;;;;6.35;3.88;;;;;;;;;;5071639;28;20086;-87
2022/04/05 07:31:28;;;;;;;7.18;4.60;;;;;;;;;;5070910;28;20079;-87
2022/04/05 07:33:55;;;;;;;9.68;5.35;;;;;;;;;;5070508;28;20467;-84
2022/04/05 07:36:21;;;;;;;8.20;4.95;;;;;;;;;;5077806;28;20045;-85
2022/04/05 07:38:48;;;;;;;7.80;4.63;;;;;;;;;;5074088;28;20536;-84
2022/04/05 07:41:14;;;;;;;7.15;4.10;;;;;;;;;;5073804;28;20076;-86
2022/04/05 07:43:42;;;;;;;8.77;4.60;;;;;;;;;;5074265;28;20072;-85
2022/04/05 07:46:10;;;;;;;8.70;4.68;;;;;;;;;;5078691;28;20119;-84
2022/04/05 07:48:36;;;;;;;7.03;3.72;;;;;;;;;;5073467;28;20459;-87
2022/04/05 07:51:04;;;;;;;7.55;5.00;;;;;;;;;;5071598;28;20071;-87
2022/04/05 07:53:31;;;;;;;7.85;5.13;;;;;;;;;;5053469;28;20053;-86
2022/04/05 07:55:58;;;;;;;11.77;5.45;;;;;;;;;;5072775;28;20064;-85
2022/04/05 07:58:26;;;;;;;9.07;5.13;;;;;;;;;;5056480;28;20132;-86
2022/04/05 08:00:54;;;;;;;9.38;5.05;;;;;;;;;;5075313;28;20097;-85
2022/04/05 08:03:22;;;;;;;12.60;6.00;;;;;;;;;;5071781;28;20515;-87
2022/04/05 08:05:48;;;;;;;10.18;5.38;;;;;;;;;;5069097;28;20119;-84
2022/04/05 08:08:15;;;;;;;9.43;5.18;;;;;;;;;;5077790;28;20100;-85
2022/04/05 08:10:41;;;;;;;11.80;5.88;;;;;;;;;;5075389;28;20417;-86
2022/04/05 08:13:08;;;;;;;11.43;6.38;;;;;;;;;;5079904;28;20079;-85
2022/04/05 08:15:35;;;;;;;9.93;4.97;;;;;;;;;;5070811;28;20064;-87
2022/04/05 08:18:03;;;;;;;8.45;4.93;;;;;;;;;;5075630;28;20041;-87
2022/04/05 08:20:36;;;;;;;10.55;5.22;;;;;;;;;;5064499;28;20523;-85
2022/04/05 08:23:03;;;;;;;9.32;5.55;;;;;;;;;;5077141;28;20086;-87
2022/04/05 08:25:30;;;;;;;8.43;5.15;;;;;;;;;;5076896;28;20036;-86
2022/04/05 08:27:57;;;;;;;9.50;5.38;;;;;;;;;;5074414;28;20113;-85
2022/04/05 08:30:24;;;;;;;10.88;5.45;;;;;;;;;;5076252;28;20040;-84
2022/04/05 08:32:50;;;;;;;10.10;5.28;;;;;;;;;;5075185;28;20136;-86
2022/04/05 08:35:20;;;;;;;8.52;5.13;;;;;;;;;;5075934;28;20548;-86
2022/04/05 08:37:47;;;;;;;9.50;5.45;;;;;;;;;;5077035;28;20140;-87
2022/04/05 08:40:16;;;;;;;8.90;5.30;;;;;;;;;;5076106;28;20079;-85
2022/04/05 08:42:44;;;;;;;10.05;5.75;;;;;;;;;;5068565;28;20119;-87
2022/04/05 08:45:12;;;;;;;7.75;4.63;;;;;;;;;;5075050;28;20135;-86
2022/04/05 08:47:41;;;;;;;8.88;5.65;;;;;;;;;;5075698;28;20036;-86
2022/04/05 08:50:11;;;;;;;9.98;4.95;;;;;;;;;;5081600;28;20071;-85
2022/04/05 08:52:39;;;;;;;8.75;4.88;;;;;;;;;;5076702;28;20074;-84
2022/04/05 08:55:06;;;;;;;8.77;5.25;;;;;;;;;;5082915;28;20535;-85
2022/04/05 08:57:33;;;;;;;9.32;4.93;;;;;;;;;;5082157;28;20090;-85
2022/04/05 09:00:01;;;;;;;9.40;5.00;;;;;;;;;;5074408;28;20104;-85
2022/04/05 09:02:28;;;;;;;7.35;4.47;;;;;;;;;;5079666;28;20178;-84
2022/04/05 09:04:55;;;;;;;10.02;5.05;;;;;;;;;;5079326;28;20063;-83
2022/04/05 09:07:23;;;;;;;8.07;4.82;;;;;;;;;;5078552;28;20123;-83
2022/04/05 09:10:13;;;;;;;7.93;4.18;;;;;;;;;;5079154;28;20048;-84
2022/04/05 09:12:44;;;;;;;8.27;5.10;;;;;;;;;;5074764;28;20048;-84
2022/04/05 09:15:23;;;;;;;9.43;5.10;;;;;;;;;;5072212;28;20127;-84
2022/04/05 09:17:50;;;;;;;8.85;4.90;;;;;;;;;;5065893;28;20071;-85
2022/04/05 09:20:18;;;;;;;9.10;4.93;;;;;;;;;;5074202;28;20135;-85
2022/04/05 09:22:45;;;;;;;7.70;4.53;;;;;;;;;;5073908;28;20040;-86
2022/04/05 09:25:15;;;;;;;6.63;3.92;;;;;;;;;;5071094;28;20071;-82
2022/04/05 09:27:46;;;;;;;8.55;4.90;;;;;;;;;;5078123;28;20114;-84
2022/04/05 09:30:14;;;;;;;9.70;5.05;;;;;;;;;;5078929;28;20120;-84
2022/04/05 09:32:43;;;;;;;8.07;4.57;;;;;;;;;;5081973;28;20123;-85
2022/04/05 09:35:11;;;;;;;8.95;4.75;;;;;;;;;;5081022;28;20331;-83
2022/04/05 09:37:39;;;;;;;8.77;4.68;;;;;;;;;;5075772;28;20441;-84
2022/04/05 09:40:18;;;;;;;6.60;4.72;;;;;;;;;;5067632;28;20053;-84
2022/04/05 09:43:02;;;;;;;10.02;4.88;;;;;;;;;;5078055;28;20108;-84
2022/04/05 09:45:48;;;;;;;8.60;5.38;;;;;;;;;;5079678;28;20079;-83
2022/04/05 09:48:16;;;;;;;6.87;4.20;;;;;;;;;;5077928;28;20036;-84
2022/04/05 09:51:04;;;;;;;11.45;5.65;;;;;;;;;;5077822;28;20480;-83
2022/04/05 09:53:43;;;;;;;9.07;4.70;;;;;;;;;;5072394;28;20081;-84
2022/04/05 09:56:14;;;;;;;9.57;5.13;;;;;;;;;;5078634;28;20123;-85
2022/04/05 09:58:45;;;;;;;7.82;4.78;;;;;;;;;;5078465;28;20063;-84
2022/04/05 10:01:12;;;;;;;9.18;4.40;;;;;;;;;;5071329;28;20120;-84
2022/04/05 10:03:40;;;;;;;10.85;5.70;;;;;;;;;;5068841;28;20036;-85
2022/04/05 10:06:06;;;;;;;9.70;4.85;;;;;;;;;;5076889;28;20123;-86
2022/04/05 10:08:34;;;;;;;8.23;4.45;;;;;;;;;;5077459;28;20094;-86
2022/04/05 10:11:01;;;;;;;9.13;4.68;;;;;;;;;;5077089;28;20041;-85
2022/04/05 10:13:29;;;;;;;6.93;4.13;;;;;;;;;;5078902;28;20079;-84
2022/04/05 10:15:56;;;;;;;7.47;4.78;;;;;;;;;;5075644;28;20116;-84
2022/04/05 10:18:24;;;;;;;9.93;4.72;;;;;;;;;;5077938;28;20060;-85
2022/04/05 10:20:51;;;;;;;10.07;5.10;;;;;;;;;;5073108;28;20511;-85
2022/04/05 10:23:20;;;;;;;8.25;5.30;;;;;;;;;;5063891;28;20137;-85
2022/04/05 10:25:48;;;;;;;8.13;5.13;;;;;;;;;;5067795;28;20037;-85
2022/04/05 10:28:16;;;;;;;9.80;5.10;;;;;;;;;;5069797;28;20068;-87
2022/04/05 10:30:49;;;;;;;9.68;5.40;;;;;;;;;;5067985;28;20078;-89
2022/04/05 10:33:34;;;;;;;6.88;4.68;;;;;;;;;;5066166;28;20124;-86
2022/04/05 10:36:02;;;;;;;7.60;4.05;;;;;;;;;;5072541;28;20064;-90
2022/04/05 10:38:30;;;;;;;8.50;4.95;;;;;;;;;;5070471;28;20707;-86
2022/04/05 10:41:13;;;;;;;10.30;4.85;;;;;;;;;;5070941;28;20079;-85
2022/04/05 10:43:40;;;;;;;8.85;4.90;;;;;;;;;;5070909;28;20120;-87
2022/04/05 10:46:09;;;;;;;6.97;4.43;;;;;;;;;;5074877;28;20431;-87
2022/04/05 10:48:37;;;;;;;7.25;3.85;;;;;;;;;;5074546;28;20444;-85
2022/04/05 10:51:30;;;;;;;9.15;5.25;;;;;;;;;;5074062;28;20123;-88
2022/04/05 10:54:18;;;;;;;13.40;6.13;;;;;;;;;;5072287;28;20145;-87
2022/04/05 10:57:19;;;;;;;10.85;5.10;;;;;;;;;;5069179;28;20123;-83
2022/04/05 10:59:51;;;;;;;10.85;6.80;;;;;;;;;;5067532;28;20079;-85
2022/04/05 11:02:40;;;;;;;10.98;5.43;;;;;;;;;;5072126;28;20546;-84
2022/04/05 11:05:35;;;;;;;7.85;5.10;;;;;;;;;;5070758;28;20129;-86
2022/04/05 11:08:13;;;;;;;8.18;4.22;;;;;;;;;;5075278;28;20060;-85
2022/04/05 11:10:54;;;;;;;10.48;4.40;;;;;;;;;;5074690;28;20492;-84
2022/04/05 11:13:33;;;;;;;6.00;3.88;;;;;;;;;;5068729;28;20098;-84
2022/04/05 11:16:00;;;;;;;6.07;3.78;;;;;;;;;;5066865;28;20151;-83
2022/04/05 11:18:31;;;;;;;7.10;4.07;;;;;;;;;;5074295;28;20076;-84
2022/04/05 11:20:58;;;;;;;6.45;4.07;;;;;;;;;;5073637;28;20119;-84
2022/04/05 11:23:43;;;;;;;8.25;4.28;;;;;;;;;;5074906;28;20456;-84
2022/04/05 11:26:24;;;;;;;7.90;4.03;;;;;;;;;;5074185;28;20561;-84
2022/04/05 11:28:51;;;;;;;7.22;4.68;;;;;;;;;;5073132;28;20115;-85
2022/04/05 11:31:28;;;;;;;6.47;3.90;;;;;;;;;;5072522;28;20076;-83
2022/04/05 11:33:56;;;;;;;10.32;3.90;;;;;;;;;;5068425;28;20432;-82
2022/04/05 11:36:25;;;;;;;7.32;4.07;;;;;;;;;;5072180;28;20080;-83
2022/04/05 11:38:56;;;;;;;7.00;3.63;;;;;;;;;;5074535;28;20040;-82
2022/04/05 11:41:24;;;;;;;8.02;4.00;;;;;;;;;;5071328;28;20052;-82
2022/04/05 11:43:52;;;;;;;9.52;4.45;;;;;;;;;;5071540;28;20045;-84
2022/04/05 11:46:20;;;;;;;6.30;3.72;;;;;;;;;;5070136;28;20120;-82
2022/04/05 11:48:48;;;;;;;6.13;3.72;;;;;;;;;;5067914;28;20120;-80
2022/04/05 11:51:18;;;;;;;7.20;4.15;;;;;;;;;;5064782;28;20540;-85
2022/04/05 11:53:46;;;;;;;6.35;3.97;;;;;;;;;;5063289;28;20127;-82
2022/04/05 11:56:17;;;;;;;8.23;4.70;;;;;;;;;;5076267;28;20737;-82
2022/04/05 11:58:47;;;;;;;9.10;3.70;;;;;;;;;;5075770;28;20040;-82
2022/04/05 12:01:16;;;;;;;6.85;3.95;;;;;;;;;;5072619;28;20051;-82
2022/04/05 12:03:55;;;;;;;6.97;4.13;;;;;;;;;;5074574;28;20202;-82
2022/04/05 12:06:34;;;;;;;7.97;4.00;;;;;;;;;;5033362;28;20037;-82
2022/04/05 12:09:02;;;;;;;7.07;4.38;;;;;;;;;;5028088;28;20050;-82
2022/04/05 12:11:31;;;;;;;7.15;3.75;;;;;;;;;;5035827;28;20140;-83
2022/04/05 12:13:59;;;;;;;6.88;4.47;;;;;;;;;;5033471;28;20129;-83
2022/04/05 12:16:27;;;;;;;8.15;3.92;;;;;;;;;;5029677;28;20460;-80
2022/04/05 12:18:53;;;;;;;8.82;4.80;;;;;;;;;;5033346;28;20097;-81
2022/04/05 12:21:22;;;;;;;5.50;3.67;;;;;;;;;;5031802;28;20041;-81
2022/04/05 12:23:50;;;;;;;8.63;4.93;;;;;;;;;;5033299;28;20038;-83
2022/04/05 12:26:20;;;;;;;10.73;5.40;;;;;;;;;;5033204;28;20455;-80
2022/04/05 12:28:49;;;;;;;9.52;4.60;;;;;;;;;;5027658;28;20452;-81
2022/04/05 12:31:17;;;;;;;12.68;6.20;;;;;;;;;;5033916;28;20073;-82
2022/04/05 12:33:57;;;;;;;10.00;4.82;;;;;;;;;;5033958;28;20095;-81
2022/04/05 12:36:25;;;;;;;7.35;4.28;;;;;;;;;;5030952;28;20080;-82
2022/04/05 12:38:54;;;;;;;13.18;5.07;;;;;;;;;;5038437;28;20162;-82
2022/04/05 12:41:21;;;;;;;10.57;5.35;;;;;;;;;;5041376;28;20083;-82
2022/04/05 12:44:04;;;;;;;6.05;3.65;;;;;;;;;;5031756;28;20083;-82
2022/04/05 12:46:36;;;;;;;7.60;4.32;;;;;;;;;;5033360;28;20120;-81
2022/04/05 12:49:14;;;;;;;7.97;4.53;;;;;;;;;;5022207;28;20045;-83
2022/04/05 12:51:44;;;;;;;7.03;4.22;;;;;;;;;;5033747;28;20110;-81
2022/04/05 12:54:26;;;;;;;6.72;3.63;;;;;;;;;;5033587;28;20042;-82
2022/04/05 12:56:52;;;;;;;5.35;3.20;;;;;;;;;;5031902;28;20589;-84
2022/04/05 12:59:25;;;;;;;7.40;3.65;;;;;;;;;;5033946;28;20104;-82
2022/04/05 13:01:54;;;;;;;8.50;3.83;;;;;;;;;;5033716;28;20141;-82
2022/04/05 13:04:22;;;;;;;7.70;4.05;;;;;;;;;;5042637;28;20750;-85
2022/04/05 13:06:53;;;;;;;6.82;3.92;;;;;;;;;;5075791;28;20131;-84
2022/04/05 13:09:29;;;;;;;6.57;3.90;;;;;;;;;;5066170;28;20067;-83
2022/04/05 13:12:13;;;;;;;7.07;3.63;;;;;;;;;;5073347;28;20436;-82
2022/04/05 13:14:40;;;;;;;6.28;4.05;;;;;;;;;;5067573;28;20115;-83
2022/04/05 13:17:08;;;;;;;5.18;3.72;;;;;;;;;;5069172;28;20060;-85
2022/04/05 13:19:35;;;;;;;7.47;4.25;;;;;;;;;;5073886;28;20129;-82
2022/04/05 13:22:01;;;;;;;7.97;4.43;;;;;;;;;;5074630;28;20488;-83
2022/04/05 13:24:39;;;;;;;6.43;3.67;;;;;;;;;;5073487;28;20087;-82
2022/04/05 13:27:06;;;;;;;7.28;4.32;;;;;;;;;;5074587;28;20124;-82
2022/04/05 13:29:34;;;;;;;6.28;4.07;;;;;;;;;;5073318;28;20113;-84
2022/04/05 13:32:02;;;;;;;7.18;4.13;;;;;;;;;;5072342;28;20040;-82
2022/04/05 13:34:30;;;;;;;8.38;5.28;;;;;;;;;;5073035;28;20129;-82
2022/04/05 13:36:57;;;;;;;8.45;5.03;;;;;;;;;;5073329;28;20059;-83
2022/04/05 13:39:25;;;;;;;6.78;4.15;;;;;;;;;;5073194;28;20067;-84
2022/04/05 13:41:53;;;;;;;6.93;4.25;;;;;;;;;;5072876;28;20628;-81
2022/04/05 13:44:21;;;;;;;8.35;4.72;;;;;;;;;;5066134;28;20049;-84
2022/04/05 13:46:48;;;;;;;5.80;3.85;;;;;;;;;;5070144;28;20052;-86
2022/04/05 13:49:16;;;;;;;6.40;4.05;;;;;;;;;;5074027;28;20036;-84
2022/04/05 13:51:43;;;;;;;6.50;3.90;;;;;;;;;;5068470;28;20036;-83
2022/04/05 13:54:11;;;;;;;5.38;3.33;;;;;;;;;;5066370;28;20040;-83
2022/04/05 13:56:38;;;;;;;7.43;4.10;;;;;;;;;;5074464;28;20045;-83
2022/04/05 13:59:07;;;;;;;7.53;4.35;;;;;;;;;;5074848;28;20083;-84
2022/04/05 14:01:34;;;;;;;6.97;4.03;;;;;;;;;;5073997;28;20068;-84
2022/04/05 14:04:00;;;;;;;6.03;3.90;;;;;;;;;;5071476;28;20551;-85
2022/04/05 14:06:27;;;;;;;6.32;3.90;;;;;;;;;;5073451;28;20151;-83
2022/04/05 14:08:54;;;;;;;11.10;4.72;;;;;;;;;;5073625;28;20074;-85
2022/04/05 14:11:20;;;;;;;6.57;3.95;;;;;;;;;;5074250;28;20119;-85
2022/04/05 14:13:48;;;;;;;6.22;4.00;;;;;;;;;;5071540;28;20068;-83
2022/04/05 14:16:17;;;;;;;7.50;4.65;;;;;;;;;;5072191;28;20040;-85
2022/04/05 14:18:44;;;;;;;7.55;4.35;;;;;;;;;;5070554;28;20048;-84
2022/04/05 14:21:10;;;;;;;9.50;4.63;;;;;;;;;;5073588;28;20123;-82
2022/04/05 14:23:39;;;;;;;7.82;4.45;;;;;;;;;;5074362;28;20092;-85
2022/04/05 14:26:06;;;;;;;7.68;4.35;;;;;;;;;;5074279;28;20047;-84
2022/04/05 14:28:32;;;;;;;8.30;4.40;;;;;;;;;;5069472;28;20131;-84
2022/04/05 14:30:59;;;;;;;6.45;3.90;;;;;;;;;;5071334;28;20559;-83
2022/04/05 14:33:27;;;;;;;7.10;4.32;;;;;;;;;;5069794;28;20056;-83
2022/04/05 14:35:54;;;;;;;8.98;4.00;;;;;;;;;;5069868;28;20123;-84
2022/04/05 14:38:21;;;;;;;11.95;4.40;;;;;;;;;;5065716;28;20040;-85
2022/04/05 14:40:47;;;;;;;8.82;5.03;;;;;;;;;;5072497;28;20083;-82
2022/04/05 14:43:14;;;;;;;9.20;5.85;;;;;;;;;;5066794;28;20495;-83
2022/04/05 14:45:40;;;;;;;12.35;5.20;;;;;;;;;;5070064;28;20099;-82
2022/04/05 14:48:07;;;;;;;9.60;5.70;;;;;;;;;;5067724;28;20115;-84
2022/04/05 14:50:35;;;;;;;8.13;5.45;;;;;;;;;;5064926;28;20404;-82